Time;durP1;ratioP1;P1;durP2;ratioP2;P2;SDS_P1;SDS_P2;PMS_P1;PMS_P2;Temp;Humidity;BMP_temperature;BMP_pressure;BME280_temperature;BME280_humidity;BME280_pressure;Samples;Min_cycle;Max_cycle;Signal;HPM_P1;HPM_P2
2021/01/06 00:00:43;;;;;;;10.93;2.22;;;5.50;83.60;;;;;;5093325;28;20228;-60
2021/01/06 00:03:11;;;;;;;8.55;2.83;;;5.50;83.70;;;;;;5092356;28;20422;-60
2021/01/06 00:05:37;;;;;;;6.88;1.77;;;5.50;83.70;;;;;;5093213;28;20043;-60
2021/01/06 00:08:03;;;;;;;7.53;2.35;;;5.60;83.80;;;;;;5093022;28;20028;-60
2021/01/06 00:10:29;;;;;;;6.35;2.38;;;5.50;83.70;;;;;;5092355;28;20360;-60
2021/01/06 00:12:55;;;;;;;4.30;2.03;;;5.60;83.90;;;;;;5092849;28;20024;-60
2021/01/06 00:15:27;;;;;;;3.17;2.03;;;5.60;83.90;;;;;;5092920;28;20032;-60
2021/01/06 00:17:53;;;;;;;7.13;2.45;;;5.60;83.90;;;;;;5092273;28;20533;-60
2021/01/06 00:20:20;;;;;;;3.38;1.85;;;5.60;83.70;;;;;;5092417;28;20048;-60
2021/01/06 00:22:46;;;;;;;10.88;3.20;;;5.50;83.80;;;;;;5092987;28;20118;-60
2021/01/06 00:25:17;;;;;;;6.40;2.17;;;5.60;83.80;;;;;;5092049;28;20107;-60
2021/01/06 00:27:43;;;;;;;3.95;1.90;;;5.60;83.90;;;;;;5092728;28;20069;-60
2021/01/06 00:30:20;;;;;;;5.45;2.53;;;5.60;83.90;;;;;;5092250;28;20412;-61
2021/01/06 00:32:46;;;;;;;6.13;2.08;;;5.60;84.10;;;;;;5092709;28;20043;-60
2021/01/06 00:35:12;;;;;;;5.18;2.63;;;5.60;84.00;;;;;;5092852;28;20028;-60
2021/01/06 00:37:37;;;;;;;7.50;2.53;;;5.60;84.00;;;;;;5091936;28;20036;-60
2021/01/06 00:40:04;;;;;;;6.05;2.55;;;5.60;83.80;;;;;;5092611;28;20071;-60
2021/01/06 00:42:30;;;;;;;7.82;2.67;;;5.60;83.80;;;;;;5092889;28;20032;-60
2021/01/06 00:44:56;;;;;;;10.38;2.83;;;5.60;83.60;;;;;;5091974;28;20028;-60
2021/01/06 00:47:21;;;;;;;5.00;2.40;;;5.60;83.60;;;;;;5092596;28;20108;-60
2021/01/06 00:49:47;;;;;;;13.77;2.90;;;5.60;83.50;;;;;;5092556;28;20030;-60
2021/01/06 00:52:13;;;;;;;5.43;2.50;;;5.60;83.60;;;;;;5091952;28;20115;-60
2021/01/06 00:54:39;;;;;;;7.20;2.60;;;5.60;83.50;;;;;;5091108;28;20032;-60
2021/01/06 00:57:05;;;;;;;4.90;2.10;;;5.60;83.60;;;;;;5092651;28;20144;-60
2021/01/06 00:59:31;;;;;;;7.78;2.85;;;5.60;83.50;;;;;;5090552;28;20024;-60
2021/01/06 01:01:57;;;;;;;6.07;2.60;;;5.60;83.50;;;;;;5091282;28;20032;-61
2021/01/06 01:04:23;;;;;;;8.38;2.63;;;5.60;83.60;;;;;;5091281;28;20077;-60
2021/01/06 01:06:50;;;;;;;5.43;2.20;;;5.60;83.70;;;;;;5093121;28;20052;-60
2021/01/06 01:09:16;;;;;;;10.30;2.85;;;5.60;83.60;;;;;;5096250;28;20028;-60
2021/01/06 01:11:42;;;;;;;12.02;2.65;;;5.60;83.60;;;;;;5096100;28;20021;-60
2021/01/06 01:14:07;;;;;;;9.68;2.75;;;5.60;83.60;;;;;;5095637;28;20028;-60
2021/01/06 01:16:43;;;;;;;10.68;3.20;;;5.60;83.50;;;;;;5095949;28;20058;-60
2021/01/06 01:19:10;;;;;;;6.68;2.45;;;5.60;83.40;;;;;;5096398;28;20024;-60
2021/01/06 01:21:36;;;;;;;6.97;2.22;;;5.60;83.50;;;;;;5095389;28;20044;-60
2021/01/06 01:24:03;;;;;;;12.27;2.95;;;5.70;83.60;;;;;;5096173;28;20031;-60
2021/01/06 01:26:29;;;;;;;11.75;3.30;;;5.60;83.60;;;;;;5095478;28;20032;-60
2021/01/06 01:28:54;;;;;;;9.77;2.88;;;5.70;83.60;;;;;;5096030;28;20024;-60
2021/01/06 01:31:20;;;;;;;6.97;2.80;;;5.60;83.50;;;;;;5095662;28;20050;-60
2021/01/06 01:33:46;;;;;;;8.00;2.83;;;5.60;83.30;;;;;;5095162;28;20040;-60
2021/01/06 01:36:12;;;;;;;9.93;2.60;;;5.60;83.60;;;;;;5095619;28;20024;-60
2021/01/06 01:38:37;;;;;;;6.38;3.05;;;5.70;83.60;;;;;;5095598;28;20028;-60
2021/01/06 01:41:09;;;;;;;5.00;2.58;;;5.70;83.50;;;;;;5094949;28;20581;-60
2021/01/06 01:43:36;;;;;;;5.47;2.92;;;5.70;83.40;;;;;;5095825;28;20056;-59
2021/01/06 01:46:03;;;;;;;8.48;2.92;;;5.60;83.20;;;;;;5096447;28;20036;-60
2021/01/06 01:48:48;;;;;;;8.02;2.58;;;5.70;83.20;;;;;;5108199;28;20024;-60
2021/01/06 01:51:31;;;;;;;14.48;3.58;;;5.70;83.10;;;;;;5095682;28;20107;-60
2021/01/06 01:54:06;;;;;;;10.52;3.00;;;5.70;83.00;;;;;;5095646;28;20070;-60
2021/01/06 01:56:47;;;;;;;9.27;2.90;;;5.70;82.90;;;;;;5094626;28;20035;-60
2021/01/06 01:59:33;;;;;;;6.43;3.15;;;5.70;82.80;;;;;;5095258;28;20028;-60
2021/01/06 02:02:03;;;;;;;9.48;3.08;;;5.70;82.80;;;;;;5094708;28;20427;-60
2021/01/06 02:04:37;;;;;;;11.02;3.65;;;5.70;82.70;;;;;;5095381;28;20032;-60
2021/01/06 02:07:27;;;;;;;7.82;2.78;;;5.70;82.50;;;;;;5095214;28;20024;-60
2021/01/06 02:09:58;;;;;;;8.05;2.67;;;5.70;82.50;;;;;;5094551;28;20028;-60
2021/01/06 02:12:37;;;;;;;7.15;3.22;;;5.70;82.50;;;;;;5095350;28;20026;-60
2021/01/06 02:15:10;;;;;;;8.77;2.70;;;5.70;82.60;;;;;;5094900;28;20471;-60
2021/01/06 02:17:36;;;;;;;8.73;2.70;;;5.70;82.70;;;;;;5094286;28;20027;-60
2021/01/06 02:20:10;;;;;;;5.68;2.40;;;5.70;83.00;;;;;;5094402;28;20059;-60
2021/01/06 02:22:35;;;;;;;6.43;2.35;;;5.70;83.10;;;;;;5095033;28;20035;-60
2021/01/06 02:25:01;;;;;;;6.55;2.42;;;5.70;83.20;;;;;;5094587;28;20032;-60
2021/01/06 02:27:27;;;;;;;6.15;3.72;;;5.70;83.20;;;;;;5094638;28;20407;-60
2021/01/06 02:29:53;;;;;;;3.88;2.45;;;5.70;83.20;;;;;;5094145;28;20044;-60
2021/01/06 02:32:18;;;;;;;6.40;2.05;;;5.70;83.20;;;;;;5094812;28;20024;-60
2021/01/06 02:34:44;;;;;;;11.50;3.13;;;5.70;83.20;;;;;;5095028;28;20046;-61
2021/01/06 02:37:10;;;;;;;8.18;3.00;;;5.70;83.10;;;;;;5094212;28;20032;-60
2021/01/06 02:39:36;;;;;;;5.65;2.15;;;5.70;83.20;;;;;;5095081;28;20052;-60
2021/01/06 02:42:03;;;;;;;8.05;2.78;;;5.70;83.20;;;;;;5094828;28;20046;-60
2021/01/06 02:44:30;;;;;;;10.35;2.80;;;5.70;83.30;;;;;;5094159;28;20059;-60
2021/01/06 02:46:56;;;;;;;4.80;2.45;;;5.70;83.20;;;;;;5094725;28;20102;-63
2021/01/06 02:49:23;;;;;;;9.57;2.55;;;5.70;83.30;;;;;;5109038;28;20024;-63
2021/01/06 02:52:17;;;;;;;5.82;2.33;;;5.70;83.20;;;;;;5093855;28;20035;-63
2021/01/06 02:54:45;;;;;;;;;;;5.70;83.20;;;;;;5095109;28;20114;-63
2021/01/06 02:57:13;;;;;;;3.80;2.08;;;5.70;83.60;;;;;;5094494;28;19908;-62
2021/01/06 02:59:42;;;;;;;10.90;2.80;;;5.70;83.60;;;;;;5093669;28;20141;-63
2021/01/06 03:02:21;;;;;;;8.88;2.78;;;5.70;83.60;;;;;;5094332;28;20098;-60
2021/01/06 03:05:02;;;;;;;4.72;2.35;;;5.70;83.60;;;;;;5094389;28;20024;-60
2021/01/06 03:07:28;;;;;;;8.80;2.78;;;5.70;83.50;;;;;;5094259;28;20035;-60
2021/01/06 03:09:54;;;;;;;7.72;2.72;;;5.70;83.60;;;;;;5094223;28;20024;-60
2021/01/06 03:12:29;;;;;;;5.50;1.80;;;5.70;83.60;;;;;;5093400;28;20032;-60
2021/01/06 03:14:56;;;;;;;8.35;2.60;;;5.70;83.40;;;;;;5094081;28;20036;-60
2021/01/06 03:17:23;;;;;;;7.18;2.10;;;5.70;83.40;;;;;;5094208;28;20036;-60
2021/01/06 03:19:53;;;;;;;8.40;2.30;;;5.70;83.40;;;;;;5093075;28;20050;-60
2021/01/06 03:22:21;;;;;;;6.45;2.40;;;5.70;83.30;;;;;;5093958;28;20024;-60
2021/01/06 03:24:56;;;;;;;7.47;2.70;;;5.70;83.20;;;;;;5099481;28;20067;-59
2021/01/06 03:27:24;;;;;;;5.85;2.25;;;5.70;83.00;;;;;;5093053;28;20036;-60
2021/01/06 03:29:51;;;;;;;7.18;1.98;;;5.70;83.00;;;;;;5096517;28;20521;-60
2021/01/06 03:32:28;;;;;;;10.13;2.35;;;5.70;83.20;;;;;;5112033;28;20027;-60
2021/01/06 03:35:04;;;;;;;11.68;2.33;;;5.70;83.10;;;;;;5098728;28;20035;-60
2021/01/06 03:37:37;;;;;;;5.93;2.30;;;5.70;83.10;;;;;;5101489;28;20032;-60
2021/01/06 03:40:12;;;;;;;5.70;1.80;;;5.80;83.00;;;;;;5092719;28;20030;-60
2021/01/06 03:42:39;;;;;;;3.97;2.05;;;5.70;82.80;;;;;;5105840;28;20043;-60
2021/01/06 03:45:06;;;;;;;6.63;2.47;;;5.70;82.60;;;;;;5109229;28;20031;-60
2021/01/06 03:47:36;;;;;;;7.50;2.58;;;5.80;82.90;;;;;;5092611;28;20090;-60
2021/01/06 03:50:11;;;;;;;18.42;2.30;;;5.80;82.90;;;;;;5093174;28;20439;-59
2021/01/06 03:53:03;;;;;;;5.47;2.10;;;5.80;82.90;;;;;;5093565;28;20047;-60
2021/01/06 03:55:41;;;;;;;4.22;2.22;;;5.80;82.80;;;;;;5092381;28;20032;-60
2021/01/06 03:58:18;;;;;;;8.00;1.83;;;5.80;82.60;;;;;;5093232;28;20032;-60
2021/01/06 04:00:50;;;;;;;5.35;1.77;;;5.80;82.70;;;;;;5100030;28;20115;-60
2021/01/06 04:03:46;;;;;;;4.50;2.28;;;5.80;82.60;;;;;;5099012;28;20513;-60
2021/01/06 04:06:12;;;;;;;5.78;2.33;;;5.80;82.70;;;;;;5093013;28;20032;-59
2021/01/06 04:08:45;;;;;;;5.75;1.98;;;5.70;82.40;;;;;;5092431;28;20040;-59
2021/01/06 04:11:16;;;;;;;5.07;1.95;;;5.80;82.40;;;;;;5093302;28;20031;-60
2021/01/06 04:13:42;;;;;;;5.40;1.52;;;5.80;82.50;;;;;;5092969;28;20064;-60
2021/01/06 04:16:07;;;;;;;6.95;2.00;;;5.80;82.60;;;;;;5092379;28;20109;-60
2021/01/06 04:18:33;;;;;;;12.45;2.35;;;5.80;82.40;;;;;;5092978;28;20047;-59
2021/01/06 04:21:03;;;;;;;12.65;2.22;;;5.80;82.30;;;;;;5092409;28;20063;-60
2021/01/06 04:23:29;;;;;;;7.40;2.33;;;5.80;82.30;;;;;;5092227;28;20111;-60
2021/01/06 04:25:54;;;;;;;4.78;2.08;;;5.80;82.40;;;;;;5093038;28;20024;-60
2021/01/06 04:28:23;;;;;;;7.00;2.28;;;5.80;83.00;;;;;;5092840;28;20353;-59
2021/01/06 04:31:03;;;;;;;6.28;2.03;;;5.80;82.50;;;;;;5091995;28;20040;-60
2021/01/06 04:33:30;;;;;;;3.17;1.60;;;5.80;82.30;;;;;;5102274;28;20041;-59
2021/01/06 04:36:00;;;;;;;7.78;2.03;;;5.80;82.90;;;;;;5111736;28;20024;-60
2021/01/06 04:38:28;;;;;;;8.75;1.98;;;5.80;82.40;;;;;;5092275;28;20064;-60
2021/01/06 04:40:59;;;;;;;6.22;1.83;;;5.80;82.50;;;;;;5092776;28;20028;-60
2021/01/06 04:43:31;;;;;;;7.25;1.90;;;5.80;82.40;;;;;;5096474;28;20085;-60
2021/01/06 04:46:33;;;;;;;5.53;2.28;;;5.80;82.20;;;;;;5096761;28;20093;-59
2021/01/06 04:49:05;;;;;;;9.25;2.15;;;5.80;82.30;;;;;;5096754;28;20042;-60
2021/01/06 04:51:52;;;;;;;8.48;1.85;;;5.80;82.30;;;;;;5095722;28;20020;-60
2021/01/06 04:54:18;;;;;;;4.32;1.65;;;5.80;82.30;;;;;;5096618;28;20024;-59
2021/01/06 04:57:15;;;;;;;8.32;1.83;;;5.80;82.50;;;;;;5096621;28;20535;-59
2021/01/06 04:59:49;;;;;;;5.30;1.98;;;5.80;82.40;;;;;;5095586;28;20471;-60
2021/01/06 05:02:21;;;;;;;2.28;1.50;;;5.80;82.40;;;;;;5096557;28;20081;-60
2021/01/06 05:04:55;;;;;;;6.38;1.52;;;5.80;82.40;;;;;;5095476;28;20028;-60
2021/01/06 05:07:52;;;;;;;4.60;1.90;;;5.80;82.30;;;;;;5096668;28;20032;-60
2021/01/06 05:10:29;;;;;;;7.10;1.45;;;5.90;82.20;;;;;;5069250;28;20479;-60
2021/01/06 05:13:14;;;;;;;4.30;2.00;;;5.80;82.20;;;;;;5095504;28;20499;-60
2021/01/06 05:15:42;;;;;;;5.75;2.13;;;5.80;82.30;;;;;;5096412;28;20121;-60
2021/01/06 05:18:08;;;;;;;7.75;1.70;;;5.80;82.20;;;;;;5096143;28;20035;-60
2021/01/06 05:20:35;;;;;;;8.30;1.83;;;5.80;82.00;;;;;;5095151;28;20044;-60
2021/01/06 05:23:05;;;;;;;4.10;1.52;;;5.80;82.10;;;;;;5096147;28;20024;-59
2021/01/06 05:25:32;;;;;;;7.30;1.45;;;5.80;82.20;;;;;;5095095;28;20035;-60
2021/01/06 05:27:58;;;;;;;2.30;1.40;;;5.80;82.60;;;;;;5096269;28;20024;-60
2021/01/06 05:30:27;;;;;;;4.45;1.80;;;5.80;82.70;;;;;;5095869;28;20513;-60
2021/01/06 05:33:05;;;;;;;2.65;1.50;;;5.80;82.70;;;;;;5099490;28;20035;-60
2021/01/06 05:35:39;;;;;;;7.07;1.80;;;5.80;82.40;;;;;;5116225;28;20470;-59
2021/01/06 05:38:05;;;;;;;9.68;3.33;;;5.80;82.20;;;;;;5096585;28;20479;-60
2021/01/06 05:40:33;;;;;;;3.67;1.52;;;5.80;82.30;;;;;;5095156;28;20039;-60
2021/01/06 05:43:21;;;;;;;8.15;1.60;;;5.80;82.20;;;;;;5095475;28;20061;-60
2021/01/06 05:45:53;;;;;;;5.15;1.50;;;5.80;82.00;;;;;;5095725;28;20032;-60
2021/01/06 05:48:22;;;;;;;3.72;1.50;;;5.80;82.30;;;;;;5094686;28;20039;-60
2021/01/06 05:51:06;;;;;;;5.22;1.60;;;5.80;82.30;;;;;;5095484;28;20537;-60
2021/01/06 05:53:34;;;;;;;5.65;1.92;;;5.80;82.30;;;;;;5095134;28;20023;-59
2021/01/06 05:56:04;;;;;;;2.72;1.42;;;5.80;82.00;;;;;;5094771;28;20085;-60
2021/01/06 05:58:36;;;;;;;6.63;1.80;;;5.80;81.90;;;;;;5095268;28;20475;-60
2021/01/06 06:01:35;;;;;;;5.80;2.00;;;5.80;81.80;;;;;;5094533;28;20437;-60
2021/01/06 06:04:20;;;;;;;6.82;1.60;;;5.80;81.60;;;;;;5095261;28;20107;-60
2021/01/06 06:07:05;;;;;;;6.90;2.00;;;5.80;81.20;;;;;;5095223;28;20028;-60
2021/01/06 06:09:49;;;;;;;3.88;1.60;;;5.80;81.20;;;;;;5094666;28;20036;-60
2021/01/06 06:12:36;;;;;;;4.30;1.88;;;5.80;81.30;;;;;;5095276;28;20039;-60
2021/01/06 06:15:38;;;;;;;7.20;1.52;;;5.80;81.00;;;;;;5094215;28;20052;-60
2021/01/06 06:18:19;;;;;;;4.22;1.40;;;5.80;81.10;;;;;;5095178;28;20038;-60
2021/01/06 06:21:17;;;;;;;3.92;1.60;;;5.90;81.00;;;;;;5094924;28;20407;-60
2021/01/06 06:24:10;;;;;;;9.68;2.85;;;5.80;80.70;;;;;;5094136;28;20055;-60
2021/01/06 06:27:03;;;;;;;7.65;1.65;;;5.90;80.70;;;;;;5094812;28;20036;-60
2021/01/06 06:29:35;;;;;;;9.20;1.90;;;5.90;80.50;;;;;;5105780;28;20097;-60
2021/01/06 06:32:02;;;;;;;3.88;1.92;;;5.90;80.30;;;;;;5105575;28;20103;-60
2021/01/06 06:34:35;;;;;;;5.07;1.48;;;5.90;80.20;;;;;;5111491;28;20454;-60
2021/01/06 06:37:19;;;;;;;8.73;1.90;;;5.90;80.00;;;;;;5101326;28;20064;-61
2021/01/06 06:40:07;;;;;;;2.97;1.95;;;5.90;79.50;;;;;;5108953;28;20665;-63
2021/01/06 06:42:56;;;;;;;5.22;1.80;;;5.90;79.30;;;;;;5114218;28;20039;-60
2021/01/06 06:45:48;;;;;;;3.40;1.38;;;6.00;79.00;;;;;;5108732;28;20027;-61
2021/01/06 06:48:40;;;;;;;3.53;1.48;;;6.00;78.70;;;;;;5105535;28;20140;-60
2021/01/06 06:51:41;;;;;;;6.88;1.70;;;6.00;78.60;;;;;;5106901;28;20111;-62
2021/01/06 06:54:10;;;;;;;4.93;1.70;;;6.00;78.40;;;;;;5077929;28;20036;-62
2021/01/06 06:57:03;;;;;;;3.88;1.60;;;6.00;78.30;;;;;;5109755;28;20031;-58
2021/01/06 06:59:42;;;;;;;3.65;1.90;;;6.00;78.10;;;;;;5112130;28;20080;-60
2021/01/06 07:02:08;;;;;;;6.55;1.85;;;6.00;78.00;;;;;;5110764;28;20081;-62
2021/01/06 07:04:43;;;;;;;5.03;1.55;;;6.10;77.90;;;;;;5111613;28;20023;-60
2021/01/06 07:07:44;;;;;;;6.25;1.50;;;6.10;77.80;;;;;;5113037;28;20115;-61
2021/01/06 07:10:23;;;;;;;4.15;1.50;;;6.10;77.50;;;;;;5111412;28;20411;-60
2021/01/06 07:12:51;;;;;;;2.05;1.58;;;6.20;77.30;;;;;;5108396;28;20024;-60
2021/01/06 07:15:28;;;;;;;5.63;1.60;;;6.20;77.20;;;;;;5107092;28;20081;-61
2021/01/06 07:17:54;;;;;;;7.00;1.50;;;6.20;77.10;;;;;;5108843;28;20020;-61
2021/01/06 07:20:31;;;;;;;5.53;1.42;;;6.20;76.90;;;;;;5106370;28;20398;-61
2021/01/06 07:23:07;;;;;;;4.25;1.65;;;6.20;76.80;;;;;;5109346;28;20387;-60
2021/01/06 07:25:36;;;;;;;1.83;1.17;;;6.20;76.60;;;;;;5109243;28;20027;-61
2021/01/06 07:28:12;;;;;;;5.70;1.80;;;6.20;77.10;;;;;;5111414;28;20040;-61
2021/01/06 07:30:40;;;;;;;3.72;1.73;;;6.30;76.50;;;;;;5110448;28;20115;-62
2021/01/06 07:33:10;;;;;;;5.60;1.80;;;6.30;76.40;;;;;;5108645;28;20050;-63
2021/01/06 07:35:39;;;;;;;3.53;1.60;;;6.30;76.30;;;;;;5104162;28;20045;-63
2021/01/06 07:38:10;;;;;;;2.60;1.45;;;6.30;76.20;;;;;;5101688;28;20070;-68
2021/01/06 07:40:38;;;;;;;4.28;1.50;;;6.30;76.00;;;;;;5102211;28;20046;-62
2021/01/06 07:43:07;;;;;;;3.10;1.58;;;6.30;75.90;;;;;;5100273;28;20475;-62
2021/01/06 07:45:51;;;;;;;3.47;1.45;;;6.30;75.80;;;;;;5097714;28;20034;-62
2021/01/06 07:48:17;;;;;;;4.85;1.80;;;6.30;75.80;;;;;;5093299;28;20452;-62
2021/01/06 07:51:02;;;;;;;4.32;1.40;;;6.30;76.20;;;;;;5097943;28;20111;-62
2021/01/06 07:53:47;;;;;;;2.47;1.30;;;6.30;76.60;;;;;;5096248;28;20030;-63
2021/01/06 07:56:31;;;;;;;3.97;1.33;;;6.20;76.70;;;;;;5097945;28;20044;-63
2021/01/06 07:58:59;;;;;;;4.20;1.95;;;6.20;77.20;;;;;;5098494;28;20389;-63
2021/01/06 08:01:44;;;;;;;3.25;1.60;;;6.10;77.40;;;;;;5105237;28;20100;-60
2021/01/06 08:04:32;;;;;;;2.53;1.70;;;6.10;77.30;;;;;;5100715;28;20028;-59
2021/01/06 08:07:05;;;;;;;3.22;1.63;;;6.10;77.60;;;;;;5103924;28;20385;-60
2021/01/06 08:09:31;;;;;;;;;;;6.10;77.70;;;;;;5101698;28;20383;-60
2021/01/06 08:11:58;;;;;;;3.00;1.42;;;6.00;78.10;;;;;;5089589;28;19908;-59
2021/01/06 08:14:33;;;;;;;5.40;1.50;;;6.00;77.70;;;;;;5099877;28;20131;-60
2021/01/06 08:17:10;;;;;;;5.28;1.63;;;6.00;77.50;;;;;;5102701;28;20028;-60
2021/01/06 08:20:00;;;;;;;3.30;1.40;;;6.00;77.40;;;;;;5106199;28;20028;-60
2021/01/06 08:22:47;;;;;;;9.60;1.77;;;6.10;77.50;;;;;;5108027;28;20385;-59
2021/01/06 08:25:25;;;;;;;4.70;2.13;;;6.10;77.30;;;;;;5090868;28;20058;-59
2021/01/06 08:27:51;;;;;;;1.77;1.50;;;6.00;77.20;;;;;;5092154;28;20054;-59
2021/01/06 08:30:26;;;;;;;5.32;1.80;;;6.10;77.20;;;;;;5100656;28;20024;-59
2021/01/06 08:33:07;;;;;;;5.70;1.90;;;6.10;77.00;;;;;;5100303;28;20027;-59
2021/01/06 08:35:36;;;;;;;6.80;1.92;;;6.10;77.00;;;;;;5101490;28;20023;-59
2021/01/06 08:38:02;;;;;;;14.05;1.98;;;6.10;77.10;;;;;;5095792;28;20028;-59
2021/01/06 08:40:38;;;;;;;2.88;1.80;;;6.10;77.00;;;;;;5102849;28;20108;-60
2021/01/06 08:43:12;;;;;;;4.03;1.50;;;6.10;76.80;;;;;;5107246;28;20031;-59
2021/01/06 08:45:41;;;;;;;4.35;1.65;;;6.10;77.00;;;;;;5105451;28;20046;-61
2021/01/06 08:48:23;;;;;;;6.30;1.67;;;6.10;77.00;;;;;;5105900;28;20114;-62
2021/01/06 08:50:49;;;;;;;2.45;1.58;;;6.20;77.10;;;;;;5100027;28;20047;-64
2021/01/06 08:53:15;;;;;;;6.95;2.10;;;6.20;77.00;;;;;;5104494;28;20435;-64
2021/01/06 08:55:55;;;;;;;4.85;1.65;;;6.20;76.80;;;;;;5100055;28;20092;-60
2021/01/06 08:58:21;;;;;;;7.35;1.85;;;6.30;76.80;;;;;;5107327;28;20039;-61
2021/01/06 09:00:49;;;;;;;3.63;1.60;;;6.30;76.60;;;;;;5110419;28;20035;-64
2021/01/06 09:03:34;;;;;;;2.88;1.83;;;6.40;76.60;;;;;;5109559;28;20096;-61
2021/01/06 09:06:18;;;;;;;4.13;2.40;;;6.40;76.60;;;;;;5109492;28;20024;-61
2021/01/06 09:08:53;;;;;;;2.15;1.55;;;6.40;76.40;;;;;;5107282;28;20112;-61
2021/01/06 09:11:28;;;;;;;2.22;1.45;;;6.50;76.30;;;;;;5109119;28;20036;-61
2021/01/06 09:14:02;;;;;;;4.93;1.50;;;6.40;76.10;;;;;;5107249;28;20532;-61
2021/01/06 09:16:51;;;;;;;2.83;1.70;;;6.50;76.10;;;;;;5108988;28;20542;-61
2021/01/06 09:19:23;;;;;;;10.98;2.17;;;6.50;76.20;;;;;;5095413;28;20032;-60
2021/01/06 09:21:49;;;;;;;3.78;1.60;;;6.50;76.00;;;;;;5107071;28;20548;-61
2021/01/06 09:24:14;;;;;;;8.27;2.25;;;6.50;76.00;;;;;;5097103;28;20028;-61
2021/01/06 09:26:44;;;;;;;2.05;1.10;;;6.50;75.80;;;;;;5109213;28;20032;-61
2021/01/06 09:29:16;;;;;;;3.45;1.70;;;6.50;75.80;;;;;;5112437;28;20027;-61
2021/01/06 09:31:49;;;;;;;4.20;1.75;;;6.50;75.90;;;;;;5112438;28;20031;-62
2021/01/06 09:34:18;;;;;;;3.92;1.42;;;6.40;76.10;;;;;;5112796;28;20031;-60
2021/01/06 09:36:46;;;;;;;7.88;1.80;;;6.30;76.20;;;;;;5094931;28;20418;-61
2021/01/06 09:39:32;;;;;;;5.32;1.90;;;6.30;76.30;;;;;;5094087;28;20046;-61
2021/01/06 09:41:59;;;;;;;1.70;1.60;;;6.30;76.40;;;;;;5094469;28;20480;-61
2021/01/06 09:44:28;;;;;;;8.90;3.13;;;6.30;76.20;;;;;;5108926;28;20047;-60
2021/01/06 09:47:04;;;;;;;6.03;1.63;;;6.30;76.30;;;;;;5103418;27;20061;-61
2021/01/06 09:49:33;;;;;;;5.57;2.10;;;6.30;76.70;;;;;;5099363;28;20077;-61
2021/01/06 09:52:04;;;;;;;2.75;1.70;;;6.20;76.70;;;;;;5099506;28;20387;-60
2021/01/06 09:54:31;;;;;;;6.47;1.50;;;6.20;76.90;;;;;;5107770;28;20032;-60
2021/01/06 09:56:56;;;;;;;3.60;1.38;;;6.20;77.10;;;;;;5103471;28;20039;-60
2021/01/06 09:59:32;;;;;;;2.65;1.70;;;6.20;77.30;;;;;;5108931;28;20094;-60
2021/01/06 10:02:07;;;;;;;4.00;1.73;;;6.20;77.20;;;;;;5101801;28;20040;-60
2021/01/06 10:04:36;;;;;;;7.53;1.73;;;6.20;77.50;;;;;;5108903;28;20039;-62
2021/01/06 10:07:39;;;;;;;4.20;1.70;;;6.20;77.50;;;;;;5102742;28;20057;-63
2021/01/06 10:10:20;;;;;;;4.03;1.65;;;6.20;77.50;;;;;;5102703;28;20028;-62
2021/01/06 10:12:52;;;;;;;6.53;2.00;;;6.20;77.40;;;;;;5104089;28;20036;-63
2021/01/06 10:15:37;;;;;;;3.13;1.40;;;6.20;77.40;;;;;;5099106;28;20043;-63
2021/01/06 10:18:18;;;;;;;2.65;1.70;;;6.20;77.50;;;;;;5107351;28;20028;-63
2021/01/06 10:21:02;;;;;;;6.18;1.95;;;6.20;77.80;;;;;;5100007;28;20047;-63
2021/01/06 10:23:55;;;;;;;8.77;1.90;;;6.20;77.70;;;;;;5100003;28;20521;-60
2021/01/06 10:26:48;;;;;;;4.93;1.75;;;6.20;77.80;;;;;;5103061;28;20437;-60
2021/01/06 10:29:37;;;;;;;4.07;1.63;;;6.20;77.70;;;;;;5102860;28;20119;-60
2021/01/06 10:32:12;;;;;;;3.40;1.70;;;6.20;78.10;;;;;;5110625;28;20055;-61
2021/01/06 10:34:46;;;;;;;3.63;1.40;;;6.20;78.10;;;;;;5107961;28;20028;-60
2021/01/06 10:37:29;;;;;;;2.83;1.38;;;6.20;78.20;;;;;;5093104;28;20032;-60
2021/01/06 10:40:32;;;;;;;1.85;1.40;;;6.20;78.50;;;;;;5093369;28;20032;-60
2021/01/06 10:43:34;;;;;;;4.00;1.73;;;6.20;78.70;;;;;;5092855;28;20032;-60
2021/01/06 10:45:59;;;;;;;3.35;1.90;;;6.20;78.90;;;;;;5093008;28;20067;-61
2021/01/06 10:48:44;;;;;;;4.97;1.70;;;6.20;79.00;;;;;;5093567;28;20057;-64
2021/01/06 10:51:09;;;;;;;4.45;1.35;;;6.20;79.10;;;;;;5092170;28;20097;-60
2021/01/06 10:53:40;;;;;;;2.72;1.40;;;6.20;79.00;;;;;;5093439;28;20032;-60
2021/01/06 10:56:10;;;;;;;5.20;1.88;;;6.10;79.20;;;;;;5092749;28;20671;-61
2021/01/06 10:58:57;;;;;;;4.82;1.60;;;6.20;79.30;;;;;;5093301;28;20097;-61
2021/01/06 11:01:25;;;;;;;4.25;1.45;;;6.20;79.40;;;;;;5092998;28;20476;-60
2021/01/06 11:04:27;;;;;;;2.53;1.30;;;6.20;79.40;;;;;;5092550;28;20024;-61
2021/01/06 11:07:10;;;;;;;3.97;1.30;;;6.20;79.50;;;;;;5093565;28;20085;-60
2021/01/06 11:10:10;;;;;;;1.88;1.50;;;6.20;79.20;;;;;;5100612;28;20101;-61
2021/01/06 11:13:13;;;;;;;5.15;1.58;;;6.20;79.00;;;;;;5092742;28;20031;-59
2021/01/06 11:16:09;;;;;;;2.97;1.60;;;6.20;79.00;;;;;;5092667;28;20067;-60
2021/01/06 11:18:39;;;;;;;2.50;1.65;;;6.20;79.10;;;;;;5092240;28;20036;-61
2021/01/06 11:21:15;;;;;;;1.85;1.58;;;6.20;79.10;;;;;;5092752;28;20127;-61
2021/01/06 11:23:44;;;;;;;2.28;1.40;;;6.20;79.10;;;;;;5092514;28;20087;-61
2021/01/06 11:26:24;;;;;;;2.97;1.27;;;6.20;78.90;;;;;;5092419;28;20039;-61
2021/01/06 11:29:08;;;;;;;5.53;1.85;;;6.20;78.80;;;;;;5092669;28;20483;-61
2021/01/06 11:31:39;;;;;;;6.93;1.60;;;6.20;79.00;;;;;;5096768;28;21625;-60
2021/01/06 11:34:10;;;;;;;1.13;1.13;;;6.20;78.90;;;;;;5108200;28;20517;-61
2021/01/06 11:36:58;;;;;;;2.85;1.52;;;6.30;79.00;;;;;;5100366;28;20028;-62
2021/01/06 11:39:27;;;;;;;2.75;1.40;;;6.30;79.00;;;;;;5102524;28;20070;-61
2021/01/06 11:42:02;;;;;;;3.35;1.48;;;6.30;79.00;;;;;;5099655;28;20038;-60
2021/01/06 11:44:32;;;;;;;3.78;1.60;;;6.30;78.90;;;;;;5103046;28;20024;-60
2021/01/06 11:47:09;;;;;;;2.45;1.60;;;6.40;78.90;;;;;;5098574;28;20032;-61
2021/01/06 11:49:37;;;;;;;5.80;1.70;;;6.40;78.80;;;;;;5102472;28;20031;-60
2021/01/06 11:52:29;;;;;;;4.47;1.50;;;6.40;78.70;;;;;;5099301;28;20102;-60
2021/01/06 11:55:17;;;;;;;4.97;1.70;;;6.40;78.70;;;;;;5100850;28;20028;-63
2021/01/06 11:58:20;;;;;;;7.30;1.73;;;6.50;78.70;;;;;;5103742;28;20032;-64
2021/01/06 12:01:03;;;;;;;2.85;1.60;;;6.40;78.70;;;;;;5105868;28;20035;-63
2021/01/06 12:03:54;;;;;;;3.03;1.38;;;6.50;78.80;;;;;;5106330;28;20062;-67
2021/01/06 12:06:46;;;;;;;7.03;1.63;;;6.50;78.80;;;;;;5112024;28;20032;-67
2021/01/06 12:09:41;;;;;;;3.75;1.27;;;6.50;78.80;;;;;;5099739;28;20390;-67
2021/01/06 12:12:18;;;;;;;4.03;1.52;;;6.60;78.70;;;;;;5110162;28;20492;-67
2021/01/06 12:15:21;;;;;;;1.75;1.48;;;6.60;78.60;;;;;;5107078;28;20035;-66
2021/01/06 12:17:55;;;;;;;3.53;1.50;;;6.60;78.60;;;;;;5108326;28;20024;-66
2021/01/06 12:20:27;;;;;;;2.83;1.40;;;6.70;78.60;;;;;;5109355;28;20047;-67
2021/01/06 12:23:15;;;;;;;4.68;1.60;;;6.70;78.60;;;;;;5110023;28;20031;-67
2021/01/06 12:25:49;;;;;;;4.47;1.30;;;6.70;78.50;;;;;;5111287;28;20035;-67
2021/01/06 12:28:30;;;;;;;2.28;1.50;;;6.70;78.30;;;;;;5107426;28;20035;-67
2021/01/06 12:31:20;;;;;;;5.18;1.40;;;6.80;78.20;;;;;;5109216;28;20147;-67
2021/01/06 12:34:20;;;;;;;8.35;1.83;;;6.80;78.10;;;;;;5107905;28;20089;-67
2021/01/06 12:37:00;;;;;;;6.15;1.40;;;6.80;78.10;;;;;;5107760;28;20051;-67
2021/01/06 12:39:45;;;;;;;4.80;1.20;;;6.80;77.90;;;;;;5110276;28;20031;-67
2021/01/06 12:42:14;;;;;;;0.90;0.90;;;6.80;78.00;;;;;;5110950;28;20516;-66
2021/01/06 12:44:44;;;;;;;3.13;0.70;;;6.70;78.00;;;;;;5105340;28;20039;-66
2021/01/06 12:47:18;;;;;;;2.97;1.08;;;6.70;78.20;;;;;;5108928;28;20032;-67
2021/01/06 12:50:18;;;;;;;2.05;1.05;;;6.70;78.00;;;;;;5105571;28;20024;-67
2021/01/06 12:52:52;;;;;;;3.13;1.35;;;6.60;77.90;;;;;;5078740;28;20040;-68
2021/01/06 12:55:28;;;;;;;3.22;0.85;;;6.60;77.90;;;;;;5109472;28;20034;-67
2021/01/06 12:58:10;;;;;;;3.92;0.95;;;6.60;77.90;;;;;;5109623;28;20027;-66
2021/01/06 13:00:40;;;;;;;1.90;1.00;;;6.60;78.00;;;;;;5110474;28;20044;-66
2021/01/06 13:03:28;;;;;;;3.38;1.05;;;6.50;78.20;;;;;;5108862;28;20619;-66
2021/01/06 13:06:10;;;;;;;3.90;1.10;;;6.50;78.20;;;;;;5112026;28;20100;-67
2021/01/06 13:08:55;;;;;;;3.15;1.20;;;6.60;78.30;;;;;;5113932;28;20024;-66
2021/01/06 13:11:37;;;;;;;1.75;1.13;;;6.50;78.30;;;;;;5113772;28;20027;-66
2021/01/06 13:14:14;;;;;;;4.10;1.20;;;6.60;78.40;;;;;;5112881;28;20520;-66
2021/01/06 13:16:54;;;;;;;2.60;1.05;;;6.60;78.50;;;;;;5114175;28;20027;-67
2021/01/06 13:19:26;;;;;;;1.60;1.30;;;6.70;78.40;;;;;;5110698;28;20027;-66
2021/01/06 13:22:04;;;;;;;2.83;1.50;;;6.70;78.30;;;;;;5110726;28;20047;-66
2021/01/06 13:24:34;;;;;;;1.15;1.05;;;6.70;78.30;;;;;;5114019;28;20031;-67
2021/01/06 13:27:04;;;;;;;3.55;1.40;;;6.70;78.10;;;;;;5110561;28;20118;-67
2021/01/06 13:29:33;;;;;;;4.30;1.38;;;6.70;78.20;;;;;;5110248;28;20073;-66
2021/01/06 13:32:14;;;;;;;2.67;1.35;;;6.70;78.10;;;;;;5111551;28;20027;-69
2021/01/06 13:34:45;;;;;;;2.28;1.17;;;6.70;78.10;;;;;;5113149;28;20107;-69
2021/01/06 13:37:11;;;;;;;2.30;1.15;;;6.70;78.20;;;;;;5112236;28;20047;-70
2021/01/06 13:40:02;;;;;;;0.95;0.73;;;6.80;78.40;;;;;;5111516;28;20823;-70